Time;durP1;ratioP1;P1;durP2;ratioP2;P2;SDS_P1;SDS_P2;PMS_P1;PMS_P2;Temp;Humidity;BMP_temperature;BMP_pressure;BME280_temperature;BME280_humidity;BME280_pressure;Samples;Min_cycle;Max_cycle;Signal;HPM_P1;HPM_P2
2022/08/29 00:04:17;;;;;;;4.17;3.73;;;;;;;22.74;58.65;96754.50;10401293;28;20295;-30
2022/08/29 00:09:18;;;;;;;6.07;4.47;;;;;;;22.73;59.09;96750.28;10405071;28;20530;-30
2022/08/29 00:14:18;;;;;;;5.33;4.17;;;;;;;22.70;59.12;96750.34;10405851;28;20025;-30
2022/08/29 00:19:19;;;;;;;4.57;3.93;;;;;;;22.69;59.03;96747.81;10403658;28;20412;-31
2022/08/29 00:24:19;;;;;;;5.30;4.47;;;;;;;22.69;59.12;96747.81;10403548;28;20239;-30
2022/08/29 00:29:20;;;;;;;5.90;3.78;;;;;;;22.72;58.87;96752.88;10405867;28;20049;-30
2022/08/29 00:34:20;;;;;;;6.63;5.03;;;;;;;22.73;58.82;96752.00;10403701;28;20359;-31
2022/08/29 00:39:20;;;;;;;4.20;3.77;;;;;;;22.70;58.76;96762.25;10405053;28;20033;-31
2022/08/29 00:44:21;;;;;;;4.70;4.23;;;;;;;22.66;58.61;96756.34;10405495;28;20288;-31
2022/08/29 00:49:33;;;;;;;4.43;4.10;;;;;;;22.65;58.70;96758.94;10403107;28;20038;-31
2022/08/29 00:54:35;;;;;;;5.22;4.15;;;;;;;22.61;58.84;96768.34;10408441;28;20034;-30
2022/08/29 00:59:37;;;;;;;4.80;4.38;;;;;;;22.57;58.93;96761.59;10413855;28;20569;-30
2022/08/29 01:04:38;;;;;;;4.43;4.03;;;;;;;22.65;59.01;96769.97;10411681;28;20438;-30
2022/08/29 01:09:41;;;;;;;6.60;4.47;;;;;;;22.73;58.52;96767.31;10412255;28;20363;-31
2022/08/29 01:14:50;;;;;;;4.93;4.03;;;;;;;22.72;58.44;96771.56;10412664;28;20307;-31
2022/08/29 01:19:56;;;;;;;4.55;4.15;;;;;;;22.64;58.43;96760.63;10411221;28;20033;-30
2022/08/29 01:24:57;;;;;;;7.93;5.50;;;;;;;22.67;58.71;96758.06;10410935;28;20050;-30
2022/08/29 01:29:57;;;;;;;5.82;4.18;;;;;;;22.66;58.42;96756.34;10412722;28;20032;-30
2022/08/29 01:34:58;;;;;;;5.00;4.60;;;;;;;22.67;58.72;96762.31;10409058;28;20044;-30
2022/08/29 01:39:58;;;;;;;4.43;4.00;;;;;;;22.64;58.36;96752.16;10410891;28;20124;-30
2022/08/29 01:44:59;;;;;;;5.77;4.20;;;;;;;22.68;58.42;96753.78;10413428;28;20029;-30
2022/08/29 01:50:03;;;;;;;5.00;3.78;;;;;;;22.74;58.26;96759.63;10411748;28;20933;-30
2022/08/29 01:55:04;;;;;;;4.45;4.05;;;;;;;22.72;58.18;96756.25;10412523;28;20040;-30
2022/08/29 02:00:06;;;;;;;6.05;4.07;;;;;;;22.69;58.28;96760.56;10412820;28;20064;-30
2022/08/29 02:05:06;;;;;;;4.72;4.22;;;;;;;22.69;58.22;96766.53;10409105;28;20108;-31
2022/08/29 02:10:07;;;;;;;7.78;4.20;;;;;;;22.66;58.34;96756.34;10411828;28;20108;-31
2022/08/29 02:15:09;;;;;;;5.30;3.85;;;;;;;22.65;58.40;96766.59;10413979;28;20036;-30
2022/08/29 02:20:09;;;;;;;4.80;4.20;;;;;;;22.64;58.15;96749.59;10410835;28;20590;-30
2022/08/29 02:25:56;;;;;;;5.05;4.55;;;;;;;22.67;58.20;96758.06;10411113;28;20079;-31
2022/08/29 02:30:31;;;;;;;7.05;4.13;;;;;;;22.72;58.03;96763.91;10412067;28;20049;-31
2022/08/29 02:35:31;;;;;;;6.90;4.47;;;;;;;22.67;58.08;96758.06;10407572;28;20435;-32
2022/08/29 02:40:33;;;;;;;4.80;3.72;;;;;;;22.61;58.08;96758.13;10410202;28;20482;-31
2022/08/29 02:45:39;;;;;;;4.72;4.20;;;;;;;22.63;58.10;96766.63;10410870;28;20038;-31
2022/08/29 02:50:41;;;;;;;;;;;;;;;22.62;58.17;96762.38;10406991;28;20086;-30
2022/08/29 02:55:41;;;;;;;5.05;4.53;;;;;;;22.57;58.18;96759.03;10409650;28;19913;-30
2022/08/29 03:00:42;;;;;;;5.80;4.27;;;;;;;22.60;58.04;96758.16;10411272;28;20499;-31
2022/08/29 03:05:42;;;;;;;5.00;4.43;;;;;;;22.56;57.88;96754.81;10407449;28;20346;-30
2022/08/29 03:10:42;;;;;;;7.13;4.57;;;;;;;22.70;57.78;96765.66;10409535;28;20105;-30
2022/08/29 03:15:43;;;;;;;4.83;4.07;;;;;;;22.69;57.81;96771.63;10409690;28;20291;-31
2022/08/29 03:20:44;;;;;;;5.35;4.28;;;;;;;22.65;57.80;96769.97;10402470;28;20037;-30
2022/08/29 03:25:44;;;;;;;5.70;4.40;;;;;;;22.60;57.88;96765.81;10408395;28;20439;-30
2022/08/29 03:30:46;;;;;;;4.97;4.50;;;;;;;22.62;57.85;96767.47;10409361;28;20034;-30
2022/08/29 03:35:46;;;;;;;5.78;4.43;;;;;;;22.58;57.86;96758.16;10403475;28;20065;-30
2022/08/29 03:40:46;;;;;;;5.67;4.47;;;;;;;22.56;57.84;96752.25;10406606;28;20625;-30
2022/08/29 03:45:51;;;;;;;5.10;4.53;;;;;;;22.59;57.53;96747.13;10407640;28;20243;-30
2022/08/29 03:50:51;;;;;;;4.93;4.53;;;;;;;22.68;57.49;96749.53;10409303;28;20087;-31
2022/08/29 03:55:51;;;;;;;5.20;3.77;;;;;;;22.68;57.42;96751.22;10407142;28;20067;-30
2022/08/29 04:00:52;;;;;;;7.33;4.40;;;;;;;22.61;57.58;96747.94;10405632;28;20494;-32
2022/08/29 04:05:52;;;;;;;4.87;4.47;;;;;;;22.55;57.64;96747.19;10408599;28;20519;-31
2022/08/29 04:10:53;;;;;;;4.35;3.67;;;;;;;22.48;57.58;96743.88;10405924;28;20432;-30
2022/08/29 04:15:54;;;;;;;4.67;3.93;;;;;;;22.46;57.68;96748.16;10405592;28;20036;-31
2022/08/29 04:21:00;;;;;;;4.27;3.87;;;;;;;22.46;57.60;96748.16;10406765;28;20030;-30
2022/08/29 04:26:01;;;;;;;5.85;4.50;;;;;;;22.44;57.79;96757.56;10404006;28;20029;-30
2022/08/29 04:31:01;;;;;;;6.57;4.32;;;;;;;22.55;57.38;96758.22;10406171;28;20034;-31
2022/08/29 04:36:05;;;;;;;4.30;3.88;;;;;;;22.60;57.27;96753.91;10401774;28;20025;-30
2022/08/29 04:41:09;;;;;;;5.88;5.38;;;;;;;22.11;58.82;96764.78;10404306;28;20052;-30
2022/08/29 04:46:10;;;;;;;8.07;4.30;;;;;;;22.31;58.12;96773.84;10403871;28;20048;-31
2022/08/29 04:51:10;;;;;;;7.90;4.10;;;;;;;22.34;57.97;96778.09;10403155;28;20038;-30
2022/08/29 04:56:11;;;;;;;7.27;4.57;;;;;;;22.31;58.10;96783.25;10404271;28;20049;-30
2022/08/29 05:01:16;;;;;;;4.97;4.18;;;;;;;22.32;58.16;96783.19;10405587;28;20065;-30
2022/08/29 05:06:18;;;;;;;5.37;4.87;;;;;;;22.36;57.86;96789.97;10401859;28;20041;-30
2022/08/29 05:11:19;;;;;;;5.60;4.78;;;;;;;22.45;57.84;96800.06;10403718;28;20664;-30
2022/08/29 05:16:20;;;;;;;5.53;4.38;;;;;;;22.47;57.42;96803.44;10400680;28;20044;-32
2022/08/29 05:21:39;;;;;;;6.50;5.03;;;;;;;22.46;57.61;96809.41;10403153;28;20384;-32
2022/08/29 05:26:44;;;;;;;5.03;4.53;;;;;;;22.45;57.40;96805.16;10402216;28;20044;-30
2022/08/29 05:31:45;;;;;;;4.70;4.30;;;;;;;22.48;57.41;96810.22;10404870;28;20565;-31
2022/08/29 05:36:45;;;;;;;6.57;4.80;;;;;;;22.48;57.47;96812.75;10402597;28;20037;-30
2022/08/29 05:41:45;;;;;;;5.80;5.20;;;;;;;22.47;57.59;96821.28;10405437;28;20069;-30
2022/08/29 05:46:47;;;;;;;4.97;4.27;;;;;;;22.38;57.78;96834.13;10411626;28;20623;-30
2022/08/29 05:51:51;;;;;;;5.68;4.80;;;;;;;22.69;57.93;96832.03;10410149;28;20128;-29
2022/08/29 05:56:51;;;;;;;5.80;4.82;;;;;;;22.59;57.64;96821.13;10409665;28;20061;-30
2022/08/29 06:01:52;;;;;;;6.17;4.77;;;;;;;22.47;58.26;96836.59;10411668;28;20560;-30
2022/08/29 06:06:52;;;;;;;6.87;4.97;;;;;;;22.46;58.54;96834.06;10411132;28;20492;-30
2022/08/29 06:11:53;;;;;;;7.50;4.73;;;;;;;22.42;58.63;96838.38;10410553;28;20040;-30
2022/08/29 06:16:53;;;;;;;6.80;4.60;;;;;;;22.42;58.77;96832.44;10409434;28;20448;-30
2022/08/29 06:21:55;;;;;;;4.80;4.30;;;;;;;22.41;58.82;96829.03;10410759;28;20037;-30
2022/08/29 06:26:56;;;;;;;5.32;4.32;;;;;;;22.45;58.95;96828.13;10408694;28;20029;-30
2022/08/29 06:31:57;;;;;;;6.93;5.32;;;;;;;22.51;59.64;96838.25;10406190;28;20029;-30
2022/08/29 06:36:58;;;;;;;7.20;4.20;;;;;;;22.64;58.76;96834.66;10403846;28;20040;-30
2022/08/29 06:41:58;;;;;;;13.13;4.90;;;;;;;22.38;58.92;96817.97;10408636;28;20021;-30
2022/08/29 06:46:59;;;;;;;10.43;6.80;;;;;;;22.47;59.47;96839.16;10406588;28;20034;-30
2022/08/29 06:52:00;;;;;;;9.98;5.28;;;;;;;22.35;59.86;96841.84;10408599;28;20056;-31
2022/08/29 06:57:00;;;;;;;7.20;4.93;;;;;;;22.42;60.38;96838.38;10407658;28;20410;-31
2022/08/29 07:02:03;;;;;;;6.33;5.73;;;;;;;22.47;61.37;96841.69;10407966;28;20030;-30
2022/08/29 07:07:04;;;;;;;11.95;5.50;;;;;;;22.48;62.03;96848.50;10408877;28;20091;-31
2022/08/29 07:12:04;;;;;;;8.02;6.57;;;;;;;22.50;62.24;96845.94;10407165;28;20090;-31
2022/08/29 07:17:05;;;;;;;6.90;5.75;;;;;;;22.59;62.04;96846.66;10408400;28;20117;-30
2022/08/29 07:22:06;;;;;;;8.30;6.30;;;;;;;22.60;62.41;96848.34;10407532;28;20507;-30
2022/08/29 07:27:08;;;;;;;9.13;5.78;;;;;;;22.60;60.64;96852.59;10406317;28;20071;-30
2022/08/29 07:32:08;;;;;;;6.82;5.82;;;;;;;22.62;62.25;96846.59;10407107;28;20045;-30
2022/08/29 07:37:09;;;;;;;7.35;6.45;;;;;;;22.58;62.68;96839.00;10407194;28;20140;-31
2022/08/29 07:42:09;;;;;;;7.63;5.72;;;;;;;22.52;61.50;96842.50;10406328;28;20156;-30
2022/08/29 07:47:10;;;;;;;8.27;5.83;;;;;;;22.61;63.83;96846.59;10404001;28;20037;-30
2022/08/29 07:52:10;;;;;;;8.40;5.17;;;;;;;22.58;62.81;96850.03;10407346;28;20029;-30
2022/08/29 07:57:11;;;;;;;7.47;5.67;;;;;;;22.63;64.07;96848.28;10405768;28;20698;-31
2022/08/29 08:02:12;;;;;;;6.60;5.53;;;;;;;22.70;63.18;96855.00;10404830;28;20036;-29
2022/08/29 08:07:12;;;;;;;9.65;6.70;;;;;;;22.64;62.72;96855.06;10405947;28;20029;-31
2022/08/29 08:12:13;;;;;;;5.78;5.10;;;;;;;22.62;61.69;96853.41;10405069;28;20140;-31
2022/08/29 08:17:14;;;;;;;8.00;5.45;;;;;;;22.64;62.46;96860.16;10403498;28;20037;-31
2022/08/29 08:22:14;;;;;;;7.30;5.57;;;;;;;22.64;62.37;96849.13;10406122;28;20067;-29
2022/08/29 08:27:14;;;;;;;10.03;5.47;;;;;;;22.61;62.17;96860.22;10404105;28;20100;-29
2022/08/29 08:32:15;;;;;;;6.53;5.87;;;;;;;22.77;62.22;96856.59;10403486;28;20121;-30
2022/08/29 08:37:16;;;;;;;7.17;5.60;;;;;;;22.79;61.90;96854.84;10403408;28;20499;-31
2022/08/29 08:42:49;;;;;;;9.15;5.95;;;;;;;22.73;61.93;96859.22;10404665;28;20037;-29
2022/08/29 08:47:57;;;;;;;5.40;4.90;;;;;;;22.72;60.42;96866.00;10400243;28;20041;-29
2022/08/29 08:53:21;;;;;;;7.20;5.57;;;;;;;22.59;60.07;96867.06;10403873;28;20116;-29
2022/08/29 08:58:31;;;;;;;5.55;4.97;;;;;;;22.55;59.80;96860.31;10402844;28;20057;-30
2022/08/29 09:03:50;;;;;;;5.90;5.28;;;;;;;22.54;60.35;96862.88;10403641;28;20099;-30
2022/08/29 09:09:28;;;;;;;9.77;4.90;;;;;;;22.51;59.37;96868.88;10395990;28;20729;-31
2022/08/29 09:14:50;;;;;;;7.63;5.68;;;;;;;22.49;59.30;96862.94;10407814;28;20045;-29
2022/08/29 09:19:50;;;;;;;6.18;5.68;;;;;;;22.52;59.49;96860.34;10403005;28;20100;-31
2022/08/29 09:24:57;;;;;;;6.00;4.18;;;;;;;22.67;60.47;96866.94;10411400;28;20088;-30
2022/08/29 09:30:04;;;;;;;7.28;4.63;;;;;;;22.67;59.40;96866.94;10412582;28;20037;-29
2022/08/29 09:35:23;;;;;;;6.45;5.20;;;;;;;22.58;59.40;96864.53;10404558;28;20377;-29
2022/08/29 09:40:50;;;;;;;5.65;4.90;;;;;;;22.53;58.76;96859.50;10410807;28;20122;-29
2022/08/29 09:46:08;;;;;;;;;;;;;;;22.53;59.56;96862.03;10409041;28;20041;-30
2022/08/29 09:51:20;;;;;;;6.07;5.30;;;;;;;22.69;62.20;96855.84;10409704;28;19912;-29
2022/08/29 09:56:25;;;;;;;6.45;5.43;;;;;;;22.82;63.57;96859.91;10410319;28;20083;-30
2022/08/29 10:01:27;;;;;;;7.90;5.47;;;;;;;22.86;62.37;96861.56;10411976;28;20040;-29
2022/08/29 10:06:31;;;;;;;6.55;5.43;;;;;;;22.94;61.92;96853.78;10406382;28;20048;-29
2022/08/29 10:11:52;;;;;;;9.90;5.57;;;;;;;23.01;61.71;96853.66;10409628;28;20116;-29
2022/08/29 10:18:19;;;;;;;6.85;5.25;;;;;;;22.76;60.57;96852.34;10409159;28;20065;-30
2022/08/29 10:22:40;;;;;;;7.43;5.35;;;;;;;22.95;61.00;96848.66;10410638;28;20124;-30
2022/08/29 10:28:41;;;;;;;12.52;6.63;;;;;;;22.77;60.54;96851.50;10405009;28;20521;-29
2022/08/29 10:33:45;;;;;;;8.00;5.47;;;;;;;22.65;60.75;96851.66;10403251;28;20043;-29
2022/08/29 10:38:55;;;;;;;6.63;4.75;;;;;;;22.50;59.76;96846.75;10404379;28;20128;-31
2022/08/29 10:44:16;;;;;;;6.97;4.88;;;;;;;22.49;60.10;96845.06;10409344;28;20080;-29
2022/08/29 10:49:31;;;;;;;9.43;4.50;;;;;;;22.62;60.36;96836.38;10406701;28;20523;-30
2022/08/29 10:55:02;;;;;;;5.28;4.78;;;;;;;22.77;60.45;96825.97;10408621;28;20037;-28
2022/08/29 11:00:06;;;;;;;6.13;4.65;;;;;;;22.67;59.95;96818.44;10405539;28;20116;-30
2022/08/29 11:05:13;;;;;;;5.65;5.00;;;;;;;22.65;61.40;96825.31;10407757;28;20120;-30
2022/08/29 11:10:22;;;;;;;9.07;5.80;;;;;;;22.64;60.60;96819.34;10408611;28;20121;-30
2022/08/29 11:15:52;;;;;;;8.57;5.82;;;;;;;22.50;60.07;96798.28;10406565;28;20029;-29
2022/08/29 11:20:59;;;;;;;5.57;4.82;;;;;;;22.54;60.70;96807.59;10400501;28;20042;-30
2022/08/29 11:26:11;;;;;;;5.93;5.40;;;;;;;22.52;59.06;96814.44;10406298;28;20029;-30
2022/08/29 11:31:23;;;;;;;9.10;4.55;;;;;;;22.56;59.91;96810.94;10408841;28;20106;-29
2022/08/29 11:36:42;;;;;;;6.82;4.40;;;;;;;22.72;60.01;96812.41;10404377;28;20037;-29
2022/08/29 11:41:54;;;;;;;7.68;5.40;;;;;;;22.75;60.23;96804.69;10404654;28;20063;-29
2022/08/29 11:46:54;;;;;;;5.70;4.15;;;;;;;22.62;59.40;96810.00;10401654;28;20510;-30
2022/08/29 11:52:07;;;;;;;12.65;5.18;;;;;;;22.58;59.16;96806.66;10404884;28;20044;-30
2022/08/29 11:57:07;;;;;;;6.40;5.78;;;;;;;22.62;60.24;96803.22;10405564;28;20034;-30
2022/08/29 12:02:08;;;;;;;6.65;5.68;;;;;;;22.54;59.45;96802.47;10405964;28;20423;-30
2022/08/29 12:07:08;;;;;;;6.78;5.55;;;;;;;22.53;59.50;96795.69;10406477;28;20506;-30
2022/08/29 12:12:12;;;;;;;5.55;5.05;;;;;;;22.51;58.95;96797.44;10405100;28;20040;-31
2022/08/29 12:17:16;;;;;;;6.32;4.43;;;;;;;22.71;60.10;96797.97;10405330;28;20041;-29
2022/08/29 12:22:45;;;;;;;12.45;5.70;;;;;;;22.84;60.54;96803.72;10395085;28;20240;-30
2022/08/29 12:27:54;;;;;;;6.40;4.50;;;;;;;22.61;61.06;96796.44;10398916;28;20044;-29
2022/08/29 12:33:20;;;;;;;9.32;4.68;;;;;;;22.65;61.70;96789.56;10399684;28;20026;-30
2022/08/29 12:38:34;;;;;;;11.03;4.27;;;;;;;22.50;62.73;96790.63;10403566;28;20037;-30
2022/08/29 12:43:42;;;;;;;11.80;5.78;;;;;;;22.47;63.83;96785.56;10392608;28;20087;-30
2022/08/29 12:48:51;;;;;;;10.27;4.43;;;;;;;22.64;63.20;96778.50;10379825;28;20077;-30
2022/08/29 12:53:52;;;;;;;7.93;4.65;;;;;;;22.69;64.30;96776.72;10353174;28;20041;-30
2022/08/29 12:58:52;;;;;;;9.73;5.07;;;;;;;22.85;62.28;96785.84;10355517;28;20535;-30
2022/08/29 13:04:05;;;;;;;7.35;4.68;;;;;;;22.97;62.10;96780.50;10357326;28;20040;-30
2022/08/29 13:09:06;;;;;;;13.65;5.28;;;;;;;22.98;62.23;96771.97;10357558;28;20033;-29
2022/08/29 13:14:10;;;;;;;5.60;4.70;;;;;;;23.00;62.88;96777.06;10403465;28;20523;-30
2022/08/29 13:19:18;;;;;;;18.48;8.57;;;;;;;22.88;62.47;96767.91;10401400;28;20045;-30
2022/08/29 13:24:19;;;;;;;13.13;6.72;;;;;;;22.86;61.80;96772.19;10357529;28;20083;-30
2022/08/29 13:29:38;;;;;;;17.60;5.38;;;;;;;22.77;61.67;96776.59;10360201;28;20098;-31
2022/08/29 13:35:02;;;;;;;13.68;4.63;;;;;;;22.75;62.45;96765.56;10352896;28;20095;-31
2022/08/29 13:40:44;;;;;;;14.82;5.82;;;;;;;22.82;62.00;96757.78;10350864;28;21022;-30
2022/08/29 13:45:44;;;;;;;8.48;5.25;;;;;;;23.01;62.15;96759.19;10356446;28;20045;-31
2022/08/29 13:50:45;;;;;;;10.67;3.93;;;;;;;22.99;60.77;96760.91;10353539;28;20038;-31
2022/08/29 13:55:45;;;;;;;10.07;3.95;;;;;;;22.82;61.16;96737.34;10351684;28;20187;-31
2022/08/29 14:00:46;;;;;;;8.52;4.95;;;;;;;22.95;61.69;96749.06;10362528;28;20026;-33
2022/08/29 14:05:47;;;;;;;6.57;4.40;;;;;;;22.99;61.49;96740.47;10364252;28;20045;-31
2022/08/29 14:10:47;;;;;;;9.25;3.92;;;;;;;23.03;61.54;96736.16;10361437;28;20682;-30
2022/08/29 14:15:47;;;;;;;10.38;5.13;;;;;;;23.10;62.24;96733.47;10363996;28;20059;-30
2022/08/29 14:20:48;;;;;;;9.33;5.23;;;;;;;23.07;61.04;96723.31;10402158;28;20615;-30
2022/08/29 14:25:48;;;;;;;9.77;4.97;;;;;;;23.08;60.96;96719.03;10409240;28;20039;-31
2022/08/29 14:30:50;;;;;;;11.02;4.38;;;;;;;23.06;60.54;96716.50;10409663;28;20369;-30
2022/08/29 14:35:50;;;;;;;10.65;4.20;;;;;;;22.97;60.70;96708.19;10411085;28;20044;-30
2022/08/29 14:40:51;;;;;;;8.38;3.30;;;;;;;22.81;60.84;96710.16;10408652;28;20372;-31
2022/08/29 14:45:51;;;;;;;12.37;4.13;;;;;;;22.73;61.34;96701.78;10406647;28;20034;-30
2022/08/29 14:50:51;;;;;;;8.17;5.10;;;;;;;22.69;61.14;96695.06;10404059;28;20033;-31
2022/08/29 14:55:54;;;;;;;5.23;4.07;;;;;;;22.69;61.08;96697.59;10344006;28;20140;-30
2022/08/29 15:00:54;;;;;;;10.57;3.63;;;;;;;22.68;61.09;96698.47;10349375;28;20037;-30
2022/08/29 15:05:55;;;;;;;4.03;3.70;;;;;;;22.67;61.04;96688.28;10353468;28;20037;-30
2022/08/29 15:10:56;;;;;;;7.88;5.40;;;;;;;22.87;60.80;96681.97;10347838;28;20061;-29
2022/08/29 15:15:58;;;;;;;5.82;3.83;;;;;;;22.95;60.17;96687.78;10350751;28;20083;-32
2022/08/29 15:20:58;;;;;;;7.85;4.07;;;;;;;22.79;60.30;96685.50;10351045;28;20048;-31
2022/08/29 15:25:59;;;;;;;5.80;3.70;;;;;;;22.71;60.58;96692.47;10355788;28;20033;-30
2022/08/29 15:31:00;;;;;;;5.25;4.10;;;;;;;22.67;60.88;96676.38;10352208;28;20289;-30
2022/08/29 15:36:01;;;;;;;5.53;4.17;;;;;;;22.65;60.91;96673.00;10353241;28;20041;-32
2022/08/29 15:41:01;;;;;;;3.42;3.13;;;;;;;22.64;60.84;96673.88;10337796;28;20664;-31
2022/08/29 15:46:02;;;;;;;3.67;3.38;;;;;;;22.62;60.71;96662.84;10355346;28;20064;-31
2022/08/29 15:51:02;;;;;;;5.43;3.97;;;;;;;22.71;60.78;96664.38;10355973;28;20034;-30
2022/08/29 15:56:03;;;;;;;6.18;5.07;;;;;;;22.90;60.72;96655.53;10357493;28;20183;-31
2022/08/29 16:01:04;;;;;;;4.73;3.53;;;;;;;22.87;60.08;96653.88;10351829;28;20500;-31
2022/08/29 16:06:04;;;;;;;3.90;3.30;;;;;;;22.72;60.40;96654.16;10352050;28;20152;-30
2022/08/29 16:11:05;;;;;;;6.13;3.72;;;;;;;22.63;60.57;96643.25;10399636;28;20025;-30
2022/08/29 16:16:05;;;;;;;7.22;3.47;;;;;;;22.70;60.59;96638.03;10408225;28;20033;-30
2022/08/29 16:21:07;;;;;;;4.30;3.30;;;;;;;22.65;60.60;96633.88;10401171;28;20032;-32
2022/08/29 16:26:07;;;;;;;5.18;3.20;;;;;;;22.64;60.56;96640.69;10406725;28;20033;-30
2022/08/29 16:31:07;;;;;;;4.23;2.80;;;;;;;22.60;60.66;96639.06;10406443;28;20026;-30
2022/08/29 16:36:08;;;;;;;4.13;3.70;;;;;;;22.79;60.39;96648.06;10405804;28;20036;-30
2022/08/29 16:41:13;;;;;;;4.45;3.70;;;;;;;22.92;60.22;96641.84;10403805;28;20042;-31
2022/08/29 16:46:16;;;;;;;2.97;2.70;;;;;;;22.80;59.95;96641.25;10407942;28;20036;-30
2022/08/29 16:51:19;;;;;;;5.07;3.85;;;;;;;22.73;60.76;96652.47;10402942;28;20179;-30
2022/08/29 16:56:19;;;;;;;4.75;3.42;;;;;;;22.69;60.17;96663.56;10405673;28;20177;-30
2022/08/29 17:01:20;;;;;;;3.17;2.88;;;;;;;22.64;60.32;96656.00;10403415;28;20046;-30
2022/08/29 17:06:21;;;;;;;3.60;2.90;;;;;;;22.64;60.37;96663.66;10407512;28;20112;-31
2022/08/29 17:21:24;;;;;;;4.80;4.30;;;;;;;22.85;61.93;96665.84;10406755;28;20041;-30
2022/08/29 17:26:25;;;;;;;3.97;3.58;;;;;;;22.92;60.28;96667.38;10404991;28;20302;-30
2022/08/29 17:31:25;;;;;;;3.50;3.20;;;;;;;22.77;59.99;96662.59;10406732;28;20488;-30
2022/08/29 17:36:25;;;;;;;3.90;3.07;;;;;;;22.69;60.28;96666.97;10410708;28;20302;-31
2022/08/29 17:41:26;;;;;;;3.20;2.80;;;;;;;22.64;60.47;96671.31;10413371;28;20299;-30
2022/08/29 18:02:14;;;;;;;5.35;4.70;;;;;;;22.99;60.44;96674.06;10609957;27;20408;-26
2022/08/29 18:07:14;;;;;;;4.93;3.60;;;;;;;23.11;60.39;96675.56;10559136;27;20028;-26
2022/08/29 18:12:15;;;;;;;3.77;3.43;;;;;;;22.97;60.03;96680.94;10568722;28;20043;-29
2022/08/29 18:17:15;;;;;;;3.88;2.65;;;;;;;22.78;59.97;96669.38;10569377;28;20035;-27
2022/08/29 18:22:15;;;;;;;2.70;2.50;;;;;;;22.72;60.17;96687.34;10573300;28;20032;-28
2022/08/29 18:27:16;;;;;;;4.37;3.03;;;;;;;22.67;60.11;96696.81;10574831;28;20080;-28
2022/08/29 18:32:17;;;;;;;4.73;2.63;;;;;;;22.65;60.25;96693.41;10567223;28;20039;-28
2022/08/29 18:37:18;;;;;;;3.15;2.80;;;;;;;22.61;60.31;96691.78;10576269;28;20298;-28
2022/08/29 18:42:19;;;;;;;5.70;3.42;;;;;;;22.61;60.38;96708.78;10570410;28;20165;-28
2022/08/29 18:47:19;;;;;;;5.67;4.20;;;;;;;22.79;61.14;96711.91;10576442;28;20114;-28
2022/08/29 18:52:20;;;;;;;7.55;4.60;;;;;;;22.96;61.67;96720.09;10568907;28;20454;-28
2022/08/29 18:57:20;;;;;;;5.18;3.58;;;;;;;22.86;60.17;96718.59;10574346;28;20640;-29
2022/08/29 19:02:21;;;;;;;5.80;3.43;;;;;;;22.71;60.21;96721.38;10540875;28;20031;-28
2022/08/29 19:07:21;;;;;;;3.42;3.13;;;;;;;22.68;60.28;96726.56;10539702;28;20035;-28
2022/08/29 19:12:22;;;;;;;3.43;3.10;;;;;;;22.63;60.41;96735.97;10544843;28;20043;-28
2022/08/29 19:17:22;;;;;;;4.73;2.90;;;;;;;22.60;60.20;96733.50;10539308;28;20036;-27
2022/08/29 19:22:22;;;;;;;6.57;3.10;;;;;;;22.61;60.29;96747.94;10540402;28;20036;-28
2022/08/29 19:27:24;;;;;;;2.90;2.57;;;;;;;22.58;60.44;96753.06;10543765;28;20085;-28
2022/08/29 19:32:24;;;;;;;5.07;3.70;;;;;;;22.82;61.19;96742.47;10544637;28;20430;-28
2022/08/29 19:37:25;;;;;;;4.93;3.75;;;;;;;22.95;60.75;96748.22;10542614;28;20070;-28
2022/08/29 19:42:25;;;;;;;4.32;2.58;;;;;;;22.83;60.05;96754.34;10546697;28;20054;-28
2022/08/29 19:47:27;;;;;;;2.73;2.43;;;;;;;22.70;60.08;96758.00;10532584;28;20077;-28
2022/08/29 19:52:28;;;;;;;3.63;3.08;;;;;;;22.64;60.40;96765.75;10539487;28;20377;-28
2022/08/29 19:57:29;;;;;;;3.13;2.50;;;;;;;22.62;60.22;96767.47;10544471;28;20039;-28
2022/08/29 20:02:29;;;;;;;3.15;2.58;;;;;;;22.59;60.16;96759.88;10530002;28;20055;-28
2022/08/29 20:07:30;;;;;;;2.77;2.57;;;;;;;22.55;60.31;96750.56;10537271;28;20038;-28
2022/08/29 20:12:32;;;;;;;3.63;3.30;;;;;;;22.61;60.67;96765.78;10550078;28;20498;-28
2022/08/29 20:17:33;;;;;;;5.55;3.97;;;;;;;22.85;60.94;96752.66;10559998;28;20039;-26
2022/08/29 20:22:33;;;;;;;3.40;3.03;;;;;;;22.95;59.71;96755.88;10559637;28;20020;-28
2022/08/29 20:27:35;;;;;;;7.77;4.60;;;;;;;22.85;60.58;96762.84;10540083;28;20024;-31
2022/08/29 20:32:35;;;;;;;6.80;3.72;;;;;;;22.73;59.97;96763.03;10554435;28;20446;-28
2022/08/29 20:37:36;;;;;;;4.95;3.08;;;;;;;22.67;59.94;96770.81;10546311;28;20044;-26
2022/08/29 20:42:36;;;;;;;3.17;2.47;;;;;;;22.62;60.08;96770.03;10538640;28;20043;-26
2022/08/29 20:47:36;;;;;;;2.80;2.37;;;;;;;22.59;60.09;96767.53;10545427;28;20023;-26
2022/08/29 20:52:37;;;;;;;3.93;2.80;;;;;;;22.59;59.99;96767.53;10536734;28;20069;-26
2022/08/29 20:57:39;;;;;;;6.45;4.72;;;;;;;22.67;61.32;96762.31;10532091;28;20051;-26
2022/08/29 21:08:00;;;;;;;3.25;2.97;;;;;;;22.88;59.40;96767.03;10535181;28;20115;-26
2022/08/29 21:13:01;;;;;;;3.83;2.70;;;;;;;22.75;59.80;96771.50;10543057;28;20035;-27
2022/08/29 21:18:02;;;;;;;2.97;2.70;;;;;;;22.66;59.91;96771.66;10549156;28;20032;-26
2022/08/29 21:23:04;;;;;;;4.85;2.80;;;;;;;22.64;59.81;96772.56;10542907;28;20027;-27
2022/08/29 21:28:06;;;;;;;3.50;3.13;;;;;;;22.62;59.91;96780.25;10543088;28;20114;-26
2022/08/29 21:33:07;;;;;;;4.38;3.97;;;;;;;22.60;60.12;96776.88;10548462;28;20047;-26
2022/08/29 21:38:08;;;;;;;3.00;2.70;;;;;;;22.59;59.88;96787.94;10537382;28;20027;-27
2022/08/29 21:43:08;;;;;;;9.18;6.13;;;;;;;22.74;62.09;96787.69;10543925;28;20028;-26
2022/08/29 21:48:09;;;;;;;9.17;5.83;;;;;;;22.98;62.32;96794.97;10550606;28;20489;-27
2022/08/29 21:53:11;;;;;;;3.37;3.07;;;;;;;22.85;60.18;96787.53;10538790;28;20063;-26
2022/08/29 21:58:12;;;;;;;3.30;3.00;;;;;;;22.72;59.99;96786.06;10542636;28;20063;-27
2022/08/29 22:03:12;;;;;;;3.70;3.08;;;;;;;22.57;59.67;96769.25;10548514;28;20074;-27
2022/08/29 22:08:13;;;;;;;4.30;2.77;;;;;;;22.61;59.90;96778.56;10546156;28;20032;-28
2022/08/29 22:13:14;;;;;;;5.07;3.20;;;;;;;22.58;59.88;96775.22;10543312;28;20155;-27
2022/08/29 22:18:14;;;;;;;4.18;3.78;;;;;;;22.57;59.92;96781.19;10534555;28;20286;-27
2022/08/29 22:23:16;;;;;;;3.80;2.88;;;;;;;22.55;59.77;96772.72;10543929;28;20044;-27
2022/08/29 22:28:16;;;;;;;5.82;5.32;;;;;;;22.81;61.91;96776.53;10538960;28;20039;-26
2022/08/29 22:33:17;;;;;;;5.60;4.97;;;;;;;22.93;61.41;96771.22;10543374;28;20047;-26
2022/08/29 22:38:17;;;;;;;3.30;3.10;;;;;;;22.82;60.00;96768.00;10540583;28;20293;-26
2022/08/29 22:43:17;;;;;;;4.37;2.90;;;;;;;22.66;59.72;96761.44;10552624;28;20065;-27
2022/08/29 22:48:18;;;;;;;3.78;3.08;;;;;;;22.65;59.75;96775.06;10550458;28;20850;-26
2022/08/29 22:53:18;;;;;;;3.20;2.92;;;;;;;22.60;59.69;96776.03;10545251;28;20048;-27
2022/08/29 22:58:19;;;;;;;2.93;2.73;;;;;;;22.58;59.73;96781.13;10547928;28;20032;-27
2022/08/29 23:03:19;;;;;;;4.83;3.73;;;;;;;22.57;59.70;96774.34;10551542;28;20036;-27
2022/08/29 23:08:19;;;;;;;6.60;4.00;;;;;;;22.57;59.70;96782.00;10553864;28;20057;-28
2022/08/29 23:13:20;;;;;;;4.93;4.45;;;;;;;22.83;61.31;96781.63;10550388;28;20036;-27
2022/08/29 23:18:20;;;;;;;5.40;4.90;;;;;;;22.90;61.00;96789.13;10548115;28;20035;-27
2022/08/29 23:23:21;;;;;;;2.93;2.73;;;;;;;22.77;59.76;96789.38;10554395;28;20043;-27
2022/08/29 23:28:22;;;;;;;3.80;3.40;;;;;;;22.67;59.65;96798.03;10545492;28;20035;-27
2022/08/29 23:33:24;;;;;;;4.53;3.30;;;;;;;22.58;59.56;96795.63;10547515;28;20035;-27
2022/08/29 23:38:25;;;;;;;4.30;2.97;;;;;;;22.59;59.71;96800.72;10544797;28;20035;-26
2022/08/29 23:43:26;;;;;;;3.90;3.15;;;;;;;22.56;59.66;96798.19;10542518;28;20040;-27
2022/08/29 23:48:27;;;;;;;4.95;4.35;;;;;;;22.60;59.26;96801.53;10553403;28;20554;-27
2022/08/29 23:53:28;;;;;;;5.18;4.07;;;;;;;22.57;59.64;96797.31;10541634;28;20096;-26
2022/08/29 23:58:28;;;;;;;4.67;4.27;;;;;;;22.83;60.40;96804.59;10546909;28;20039;-26
